Time;durP1;ratioP1;P1;durP2;ratioP2;P2;SDS_P1;SDS_P2;PMS_P1;PMS_P2;Temp;Humidity;BMP_temperature;BMP_pressure;BME280_temperature;BME280_humidity;BME280_pressure;Samples;Min_cycle;Max_cycle;Signal;HPM_P1;HPM_P2
2024/01/18 00:00:13;;;;;;;;;;;;;;;;;;4951365;28;19988;-71
2024/01/18 00:02:39;;;;;;;;;;;;;;;;;;4955854;28;19961;-73
2024/01/18 00:05:06;;;;;;;;;;;;;;;;;;5032280;28;20025;-76
2024/01/18 00:07:32;;;;;;;;;;;;;;;;;;4959847;28;20059;-72
2024/01/18 00:09:59;;;;;;;;;;;;;;;;;;5035953;28;19930;-74
2024/01/18 00:12:25;;;;;;;;;;;;;;;;;;4958499;28;19934;-72
2024/01/18 00:14:51;;;;;;;;;;;;;;;;;;5028895;28;20348;-73
2024/01/18 00:17:18;;;;;;;;;;;;;;;;;;4957780;28;19933;-72
2024/01/18 00:19:44;;;;;;;;;;;;;;;;;;5036986;28;20413;-72
2024/01/18 00:22:11;;;;;;;;;;;;;;;;;;5018981;28;19926;-73
2024/01/18 00:24:37;;;;;;;;;;;;;;;;;;4956688;28;19930;-72
2024/01/18 00:27:03;;;;;;;;;;;;;;;;;;5036045;28;19963;-73
2024/01/18 00:29:31;;;;;;;;;;;;;;;;;;4942484;28;19930;-74
2024/01/18 00:31:57;;;;;;;;;;;;;;;;;;4963526;28;20414;-73
2024/01/18 00:34:23;;;;;;;;;;;;;;;;;;4961977;28;19969;-74
2024/01/18 00:36:50;;;;;;;;;;;;;;;;;;5032878;28;19976;-73
2024/01/18 00:39:19;;;;;;;;;;;;;;;;;;4959966;28;20023;-73
2024/01/18 00:41:46;;;;;;;;;;;;;;;;;;4963080;28;19931;-72
2024/01/18 00:44:12;;;;;;;;;;;;;;;;;;5036570;28;19985;-73
2024/01/18 00:46:38;;;;;;;;;;;;;;;;;;5036745;28;20339;-72
2024/01/18 00:49:05;;;;;;;;;;;;;;;;;;4961719;28;19938;-74
2024/01/18 00:51:31;;;;;;;;;;;;;;;;;;4963156;28;20398;-74
2024/01/18 00:53:58;;;;;;;;;;;;;;;;;;4963713;28;19953;-76
2024/01/18 00:56:24;;;;;;;;;;;;;;;;;;4971145;28;20367;-72
2024/01/18 00:58:50;;;;;;;;;;;;;;;;;;4963139;28;19949;-73
2024/01/18 01:01:17;;;;;;;;;;;;;;;;;;5027069;28;19926;-73
2024/01/18 01:03:43;;;;;;;;;;;;;;;;;;4959203;28;19926;-73
2024/01/18 01:06:12;;;;;;;;;;;;;;;;;;4955353;28;20365;-73
2024/01/18 01:08:39;;;;;;;;;;;;;;;;;;4960293;28;19927;-73
2024/01/18 01:11:05;;;;;;;;;;;;;;;;;;4962483;28;19931;-73
2024/01/18 01:13:31;;;;;;;;;;;;;;;;;;5031509;28;19934;-71
2024/01/18 01:15:58;;;;;;;;;;;;;;;;;;4966491;28;19926;-73
2024/01/18 01:18:25;;;;;;;;;;;;;;;;;;4961257;28;19930;-72
2024/01/18 01:20:51;;;;;;;;;;;;;;;;;;5038611;28;20026;-73
2024/01/18 01:23:17;;;;;;;;;;;;;;;;;;4963148;28;19927;-73
2024/01/18 01:25:44;;;;;;;;;;;;;;;;;;4957750;28;19930;-73
2024/01/18 01:28:10;;;;;;;;;;;;;;;;;;4966801;28;20415;-73
2024/01/18 01:30:37;;;;;;;;;;;;;;;;;;5036457;28;19972;-73
2024/01/18 01:33:03;;;;;;;;;;;;;;;;;;4963760;28;20094;-73
2024/01/18 01:35:30;;;;;;;;;;;;;;;;;;4955951;28;19969;-72
2024/01/18 01:37:56;;;;;;;;;;;;;;;;;;4965775;28;19996;-73
2024/01/18 01:40:23;;;;;;;;;;;;;;;;;;5032914;28;19940;-74
2024/01/18 01:42:49;;;;;;;;;;;;;;;;;;5037991;28;20029;-72
2024/01/18 01:45:16;;;;;;;;;;;;;;;;;;4958152;28;19927;-72
2024/01/18 01:47:42;;;;;;;;;;;;;;;;;;4959865;28;19995;-72
2024/01/18 01:50:09;;;;;;;;;;;;;;;;;;4962752;28;19938;-74
2024/01/18 01:52:35;;;;;;;;;;;;;;;;;;4957310;28;19934;-72
2024/01/18 01:55:02;;;;;;;;;;;;;;;;;;5039231;28;19973;-72
2024/01/18 01:57:28;;;;;;;;;;;;;;;;;;4960958;28;19927;-71
2024/01/18 01:59:55;;;;;;;;;;;;;;;;;;4960708;28;19969;-73
2024/01/18 02:02:22;;;;;;;;;;;;;;;;;;4956921;28;20344;-73
2024/01/18 02:04:48;;;;;;;;;;;;;;;;;;5038280;28;19926;-72
2024/01/18 02:07:15;;;;;;;;;;;;;;;;;;4960248;28;20314;-75
2024/01/18 02:09:41;;;;;;;;;;;;;;;;;;4960786;28;20025;-75
2024/01/18 02:12:08;;;;;;;;;;;;;;;;;;5029051;28;20379;-72
2024/01/18 02:14:35;;;;;;;;;;;;;;;;;;4964262;28;19930;-73
2024/01/18 02:17:03;;;;;;;;;;;;;;;;;;5032954;28;20354;-74
2024/01/18 02:19:30;;;;;;;;;;;;;;;;;;4958547;28;20370;-74
2024/01/18 02:21:56;;;;;;;;;;;;;;;;;;4964775;28;20318;-72
2024/01/18 02:24:23;;;;;;;;;;;;;;;;;;4961553;28;20315;-72
2024/01/18 02:26:49;;;;;;;;;;;;;;;;;;4966300;28;19930;-72
2024/01/18 02:29:15;;;;;;;;;;;;;;;;;;4964776;28;19930;-74
2024/01/18 02:31:42;;;;;;;;;;;;;;;;;;4968467;28;19938;-73
2024/01/18 02:34:09;;;;;;;;;;;;;;;;;;4963290;28;19937;-74
2024/01/18 02:36:36;;;;;;;;;;;;;;;;;;4960568;28;19927;-74
2024/01/18 02:39:02;;;;;;;;;;;;;;;;;;4954065;29;19927;-74
2024/01/18 02:41:28;;;;;;;;;;;;;;;;;;5037796;28;20011;-73
2024/01/18 02:43:55;;;;;;;;;;;;;;;;;;5038185;28;19927;-74
2024/01/18 02:46:23;;;;;;;;;;;;;;;;;;4968304;28;20374;-72
2024/01/18 02:48:50;;;;;;;;;;;;;;;;;;4961178;28;19930;-73
2024/01/18 02:51:16;;;;;;;;;;;;;;;;;;5038775;28;19927;-72
2024/01/18 02:53:43;;;;;;;;;;;;;;;;;;4961118;28;20390;-73
2024/01/18 02:56:09;;;;;;;;;;;;;;;;;;4966874;28;20390;-72
2024/01/18 02:58:35;;;;;;;;;;;;;;;;;;4957462;28;20406;-74
2024/01/18 03:01:02;;;;;;;;;;;;;;;;;;5031155;28;19930;-73
2024/01/18 03:03:28;;;;;;;;;;;;;;;;;;4963144;28;19930;-73
2024/01/18 03:05:57;;;;;;;;;;;;;;;;;;4964916;28;19937;-73
2024/01/18 03:08:24;;;;;;;;;;;;;;;;;;4955264;28;19931;-73
2024/01/18 03:10:50;;;;;;;;;;;;;;;;;;4960546;28;19926;-72
2024/01/18 03:13:16;;;;;;;;;;;;;;;;;;5023048;28;20020;-72
2024/01/18 03:15:43;;;;;;;;;;;;;;;;;;5036252;28;19966;-71
2024/01/18 03:18:09;;;;;;;;;;;;;;;;;;4969227;28;19930;-72
2024/01/18 03:20:36;;;;;;;;;;;;;;;;;;5043875;28;19932;-74
2024/01/18 03:23:05;;;;;;;;;;;;;;;;;;4961006;28;20737;-73
2024/01/18 03:25:31;;;;;;;;;;;;;;;;;;4970798;28;20405;-72
2024/01/18 03:27:57;;;;;;;;;;;;;;;;;;4957682;28;20333;-73
2024/01/18 03:30:24;;;;;;;;;;;;;;;;;;4954953;28;19931;-73
2024/01/18 03:32:50;;;;;;;;;;;;;;;;;;4969177;28;20008;-73
2024/01/18 03:35:16;;;;;;;;;;;;;;;;;;4967303;28;19934;-72
2024/01/18 03:37:43;;;;;;;;;;;;;;;;;;5036604;28;20391;-74
2024/01/18 03:40:10;;;;;;;;;;;;;;;;;;5026039;28;19980;-72
2024/01/18 03:42:36;;;;;;;;;;;;;;;;;;4960141;28;20453;-72
2024/01/18 03:45:03;;;;;;;;;;;;;;;;;;4964861;28;19933;-72
2024/01/18 03:47:29;;;;;;;;;;;;;;;;;;4958683;28;19952;-72
2024/01/18 03:49:56;;;;;;;;;;;;;;;;;;4955753;28;20378;-72
2024/01/18 03:52:23;;;;;;;;;;;;;;;;;;4954350;28;19926;-73
2024/01/18 03:54:52;;;;;;;;;;;;;;;;;;4962771;28;20493;-72
2024/01/18 03:57:19;;;;;;;;;;;;;;;;;;5034258;28;20036;-75
2024/01/18 03:59:45;;;;;;;;;;;;;;;;;;5036652;28;19926;-73
2024/01/18 04:02:12;;;;;;;;;;;;;;;;;;4961865;28;20458;-71
2024/01/18 04:04:38;;;;;;;;;;;;;;;;;;4968595;28;20378;-73
2024/01/18 04:07:04;;;;;;;;;;;;;;;;;;5035822;28;19931;-71
2024/01/18 04:09:31;;;;;;;;;;;;;;;;;;5035116;28;19930;-72
2024/01/18 04:11:57;;;;;;;;;;;;;;;;;;4960031;28;19926;-73
2024/01/18 04:14:24;;;;;;;;;;;;;;;;;;5038430;28;20025;-75
2024/01/18 04:16:50;;;;;;;;;;;;;;;;;;4962594;28;19970;-71
2024/01/18 04:19:17;;;;;;;;;;;;;;;;;;4954024;28;20299;-73
2024/01/18 04:21:43;;;;;;;;;;;;;;;;;;5038891;28;20021;-73
2024/01/18 04:24:10;;;;;;;;;;;;;;;;;;4974111;28;19933;-72
2024/01/18 04:26:36;;;;;;;;;;;;;;;;;;4968499;28;19926;-71
2024/01/18 04:29:02;;;;;;;;;;;;;;;;;;4964722;28;19927;-73
2024/01/18 04:31:29;;;;;;;;;;;;;;;;;;4974262;28;19926;-72
2024/01/18 04:33:55;;;;;;;;;;;;;;;;;;4974504;28;20021;-72
2024/01/18 04:36:22;;;;;;;;;;;;;;;;;;5044900;28;19930;-73
2024/01/18 04:38:48;;;;;;;;;;;;;;;;;;4971412;28;19972;-73
2024/01/18 04:41:15;;;;;;;;;;;;;;;;;;4971768;28;20820;-73
2024/01/18 04:43:41;;;;;;;;;;;;;;;;;;4970937;28;19931;-72
2024/01/18 04:46:09;;;;;;;;;;;;;;;;;;4971837;28;19979;-72
2024/01/18 04:48:36;;;;;;;;;;;;;;;;;;4965771;28;20361;-72
2024/01/18 04:51:03;;;;;;;;;;;;;;;;;;5041527;28;19958;-74
2024/01/18 04:53:30;;;;;;;;;;;;;;;;;;4969003;28;19980;-72
2024/01/18 04:55:56;;;;;;;;;;;;;;;;;;4969895;28;19926;-72
2024/01/18 04:58:22;;;;;;;;;;;;;;;;;;4964328;28;19991;-72
2024/01/18 05:00:49;;;;;;;;;;;;;;;;;;4976119;28;20009;-72
2024/01/18 05:03:16;;;;;;;;;;;;;;;;;;4971316;28;19926;-73
2024/01/18 05:05:43;;;;;;;;;;;;;;;;;;5043863;28;19926;-71
2024/01/18 05:08:09;;;;;;;;;;;;;;;;;;5040197;28;20018;-71
2024/01/18 05:10:35;;;;;;;;;;;;;;;;;;4961299;28;19926;-75
2024/01/18 05:13:02;;;;;;;;;;;;;;;;;;4968624;28;19926;-72
2024/01/18 05:15:28;;;;;;;;;;;;;;;;;;5036216;28;20624;-71
2024/01/18 05:17:55;;;;;;;;;;;;;;;;;;4964705;28;19953;-72
2024/01/18 05:20:27;;;;;;;;;;;;;;;;;;5032453;28;19941;-71
2024/01/18 05:22:53;;;;;;;;;;;;;;;;;;5038872;28;19927;-72
2024/01/18 05:25:21;;;;;;;;;;;;;;;;;;4956401;28;19926;-71
2024/01/18 05:27:49;;;;;;;;;;;;;;;;;;5038950;28;20406;-71
2024/01/18 05:30:15;;;;;;;;;;;;;;;;;;4958162;28;20022;-72
2024/01/18 05:32:41;;;;;;;;;;;;;;;;;;5040257;28;19966;-72
2024/01/18 05:35:08;;;;;;;;;;;;;;;;;;4961761;28;19973;-71
2024/01/18 05:37:35;;;;;;;;;;;;;;;;;;4968175;28;20045;-74
2024/01/18 05:40:01;;;;;;;;;;;;;;;;;;4962798;28;19926;-74
2024/01/18 05:42:27;;;;;;;;;;;;;;;;;;4958411;28;20029;-73
2024/01/18 05:44:54;;;;;;;;;;;;;;;;;;5037324;28;20082;-72
2024/01/18 05:47:20;;;;;;;;;;;;;;;;;;4955955;28;20291;-71
2024/01/18 05:49:47;;;;;;;;;;;;;;;;;;4963219;28;19927;-72
2024/01/18 05:52:13;;;;;;;;;;;;;;;;;;5025227;28;19927;-72
2024/01/18 05:54:40;;;;;;;;;;;;;;;;;;4963669;28;20025;-73
2024/01/18 05:57:06;;;;;;;;;;;;;;;;;;4961055;28;19926;-74
2024/01/18 05:59:33;;;;;;;;;;;;;;;;;;4959542;28;20032;-73
2024/01/18 06:01:59;;;;;;;;;;;;;;;;;;4960364;28;20025;-72
2024/01/18 06:04:25;;;;;;;;;;;;;;;;;;4974156;28;19930;-73
2024/01/18 06:06:52;;;;;;;;;;;;;;;;;;5036524;28;19927;-72
2024/01/18 06:09:19;;;;;;;;;;;;;;;;;;4960153;28;20414;-71
2024/01/18 06:11:45;;;;;;;;;;;;;;;;;;4962688;28;20383;-73
2024/01/18 06:14:11;;;;;;;;;;;;;;;;;;4962644;28;19935;-73
2024/01/18 06:16:38;;;;;;;;;;;;;;;;;;5021997;28;19926;-72
2024/01/18 06:19:04;;;;;;;;;;;;;;;;;;5037703;28;19935;-72
2024/01/18 06:21:31;;;;;;;;;;;;;;;;;;4964110;28;20024;-73
2024/01/18 06:23:59;;;;;;;;;;;;;;;;;;5035732;28;20016;-73
2024/01/18 06:26:26;;;;;;;;;;;;;;;;;;4961161;28;19976;-74
2024/01/18 06:28:52;;;;;;;;;;;;;;;;;;5028101;28;19945;-73
2024/01/18 06:31:22;;;;;;;;;;;;;;;;;;4960812;28;19926;-73
2024/01/18 06:33:48;;;;;;;;;;;;;;;;;;5040892;28;20445;-72
2024/01/18 06:36:14;;;;;;;;;;;;;;;;;;4960443;28;19934;-72
2024/01/18 06:38:41;;;;;;;;;;;;;;;;;;4963540;28;19926;-72
2024/01/18 06:41:07;;;;;;;;;;;;;;;;;;4962089;28;19926;-72
2024/01/18 06:43:33;;;;;;;;;;;;;;;;;;4961891;28;19933;-74
2024/01/18 06:46:00;;;;;;;;;;;;;;;;;;5034641;28;20401;-72
2024/01/18 06:48:26;;;;;;;;;;;;;;;;;;4956538;28;20389;-72
2024/01/18 06:50:53;;;;;;;;;;;;;;;;;;4962625;28;20359;-73
2024/01/18 06:53:19;;;;;;;;;;;;;;;;;;5036536;28;20017;-71
2024/01/18 06:55:45;;;;;;;;;;;;;;;;;;4958593;28;19942;-72
2024/01/18 06:58:12;;;;;;;;;;;;;;;;;;4957135;28;19930;-71
2024/01/18 07:00:38;;;;;;;;;;;;;;;;;;4960946;28;20405;-72
2024/01/18 07:03:07;;;;;;;;;;;;;;;;;;4962342;28;19972;-72
2024/01/18 07:05:33;;;;;;;;;;;;;;;;;;4952560;29;19966;-73
2024/01/18 07:07:59;;;;;;;;;;;;;;;;;;4960370;28;19972;-73
2024/01/18 07:10:26;;;;;;;;;;;;;;;;;;4969792;28;19934;-74
2024/01/18 07:12:52;;;;;;;;;;;;;;;;;;4964053;28;20270;-72
2024/01/18 07:15:19;;;;;;;;;;;;;;;;;;5034571;28;19931;-72
2024/01/18 07:17:53;;;;;;;;;;;;;;;;;;5094096;27;19955;-73
2024/01/18 07:20:20;;;;;;;;;;;;;;;;;;5091622;28;19924;-71
2024/01/18 07:22:46;;;;;;;;;;;;;;;;;;5099975;28;20015;-73
2024/01/18 07:25:12;;;;;;;;;;;;;;;;;;5092182;28;19997;-72
2024/01/18 07:27:39;;;;;;;;;;;;;;;;;;5093978;28;19986;-74
2024/01/18 07:30:05;;;;;;;;;;;;;;;;;;5087978;28;19963;-72
2024/01/18 07:32:33;;;;;;;;;;;;;;;;;;5092742;28;19924;-72
2024/01/18 07:35:00;;;;;;;;;;;;;;;;;;5091297;28;20351;-72
2024/01/18 07:37:28;;;;;;;;;;;;;;;;;;5097183;28;19928;-72
2024/01/18 07:39:54;;;;;;;;;;;;;;;;;;5094567;28;19931;-74
2024/01/18 07:42:21;;;;;;;;;;;;;;;;;;5097558;28;19924;-71
2024/01/18 07:44:47;;;;;;;;;;;;;;;;;;5091993;28;19970;-72
2024/01/18 07:47:14;;;;;;;;;;;;;;;;;;5095040;28;19936;-73
2024/01/18 07:49:43;;;;;;;;;;;;;;;;;;5095485;28;20380;-74
2024/01/18 07:52:12;;;;;;;;;;;;;;;;;;5089190;28;20381;-72
2024/01/18 07:54:38;;;;;;;;;;;;;;;;;;5096693;28;20005;-73
2024/01/18 07:57:05;;;;;;;;;;;;;;;;;;5093349;28;20350;-74
2024/01/18 07:59:31;;;;;;;;;;;;;;;;;;5095312;28;20023;-72
2024/01/18 08:01:57;;;;;;;;;;;;;;;;;;5095250;28;19924;-75
2024/01/18 08:04:25;;;;;;;;;;;;;;;;;;5099002;28;20016;-72
2024/01/18 08:06:52;;;;;;;;;;;;;;;;;;5094182;28;19925;-73
2024/01/18 08:09:19;;;;;;;;;;;;;;;;;;5096506;28;19977;-73
2024/01/18 08:11:46;;;;;;;;;;;;;;;;;;5091083;28;19928;-73
2024/01/18 08:14:13;;;;;;;;;;;;;;;;;;5085875;28;20031;-74
2024/01/18 08:16:42;;;;;;;;;;;;;;;;;;5086361;28;20023;-73
2024/01/18 08:19:11;;;;;;;;;;;;;;;;;;5090744;28;20015;-73
2024/01/18 08:21:38;;;;;;;;;;;;;;;;;;5087108;28;19946;-72
2024/01/18 08:24:05;;;;;;;;;;;;;;;;;;5096094;28;19924;-72
2024/01/18 08:26:31;;;;;;;;;;;;;;;;;;5089393;28;19924;-71
2024/01/18 08:28:58;;;;;;;;;;;;;;;;;;5082578;28;19924;-72
2024/01/18 08:31:24;;;;;;;;;;;;;;;;;;5067311;28;20023;-71
2024/01/18 08:33:50;;;;;;;;;;;;;;;;;;5077830;28;19931;-73
2024/01/18 08:36:17;;;;;;;;;;;;;;;;;;5073807;28;19964;-73
2024/01/18 08:38:43;;;;;;;;;;;;;;;;;;5067071;28;20039;-72
2024/01/18 08:41:10;;;;;;;;;;;;;;;;;;5070938;28;19929;-71
2024/01/18 08:43:36;;;;;;;;;;;;;;;;;;5080148;28;20561;-71
2024/01/18 08:46:06;;;;;;;;;;;;;;;;;;5074671;28;19939;-72
2024/01/18 08:48:34;;;;;;;;;;;;;;;;;;5076535;28;20023;-71
2024/01/18 08:51:02;;;;;;;;;;;;;;;;;;5076360;28;20412;-74
2024/01/18 08:53:28;;;;;;;;;;;;;;;;;;5074638;28;19925;-72
2024/01/18 08:55:54;;;;;;;;;;;;;;;;;;5082966;28;19924;-72
2024/01/18 08:58:21;;;;;;;;;;;;;;;;;;5072063;28;19935;-71
2024/01/18 09:00:47;;;;;;;;;;;;;;;;;;5078018;28;20411;-72
2024/01/18 09:03:14;;;;;;;;;;;;;;;;;;5077365;28;19931;-72
2024/01/18 09:05:42;;;;;;;;;;;;;;;;;;5082136;28;20246;-74
2024/01/18 09:08:10;;;;;;;;;;;;;;;;;;5069649;28;20405;-72
2024/01/18 09:10:36;;;;;;;;;;;;;;;;;;5074511;28;19924;-72
2024/01/18 09:13:03;;;;;;;;;;;;;;;;;;5076140;28;20047;-72
2024/01/18 09:15:29;;;;;;;;;;;;;;;;;;5076817;28;19963;-72
2024/01/18 09:17:56;;;;;;;;;;;;;;;;;;5081239;28;19939;-71
2024/01/18 09:20:22;;;;;;;;;;;;;;;;;;5081652;28;20434;-74
2024/01/18 09:22:49;;;;;;;;;;;;;;;;;;5078591;28;20011;-73
2024/01/18 09:25:20;;;;;;;;;;;;;;;;;;5075632;28;19935;-73
2024/01/18 09:27:46;;;;;;;;;;;;;;;;;;5077299;28;20400;-71
2024/01/18 09:30:13;;;;;;;;;;;;;;;;;;5076468;28;19975;-73
2024/01/18 09:32:39;;;;;;;;;;;;;;;;;;5077402;28;20441;-72
2024/01/18 09:35:05;;;;;;;;;;;;;;;;;;5077007;28;19929;-71
2024/01/18 09:37:32;;;;;;;;;;;;;;;;;;5078001;28;20305;-71
2024/01/18 09:39:58;;;;;;;;;;;;;;;;;;5081305;28;19935;-72
2024/01/18 09:42:25;;;;;;;;;;;;;;;;;;5074897;28;20393;-73
2024/01/18 09:44:51;;;;;;;;;;;;;;;;;;5080490;28;20396;-71
2024/01/18 09:47:18;;;;;;;;;;;;;;;;;;5080471;28;19932;-71
2024/01/18 09:49:44;;;;;;;;;;;;;;;;;;5081173;28;20389;-71
2024/01/18 09:52:11;;;;;;;;;;;;;;;;;;5078289;28;20377;-71
2024/01/18 09:54:37;;;;;;;;;;;;;;;;;;5080509;28;19963;-72
2024/01/18 09:57:06;;;;;;;;;;;;;;;;;;5081759;28;20453;-72
2024/01/18 09:59:32;;;;;;;;;;;;;;;;;;5069710;28;20421;-71
2024/01/18 10:01:58;;;;;;;;;;;;;;;;;;5078696;28;19932;-72
2024/01/18 10:04:28;;;;;;;;;;;;;;;;;;5073652;28;20317;-72
2024/01/18 10:06:55;;;;;;;;;;;;;;;;;;5072325;28;19981;-72
2024/01/18 10:09:22;;;;;;;;;;;;;;;;;;5076186;28;19928;-71
2024/01/18 10:11:48;;;;;;;;;;;;;;;;;;5073683;28;19932;-71
2024/01/18 10:14:15;;;;;;;;;;;;;;;;;;5076181;28;20035;-71
2024/01/18 10:16:41;;;;;;;;;;;;;;;;;;5072855;28;20214;-73
2024/01/18 10:19:14;;;;;;;;;;;;;;;;;;5080424;28;20053;-71
2024/01/18 10:21:40;;;;;;;;;;;;;;;;;;5070163;28;20007;-72
2024/01/18 10:24:08;;;;;;;;;;;;;;;;;;5079629;28;19928;-71
2024/01/18 10:26:35;;;;;;;;;;;;;;;;;;5070126;28;19932;-72
2024/01/18 10:29:01;;;;;;;;;;;;;;;;;;5075466;28;19935;-72
2024/01/18 10:31:31;;;;;;;;;;;;;;;;;;5069987;28;20385;-72
2024/01/18 10:33:57;;;;;;;;;;;;;;;;;;5072428;28;19933;-72
2024/01/18 10:36:23;;;;;;;;;;;;;;;;;;5065461;28;19928;-72
2024/01/18 10:38:50;;;;;;;;;;;;;;;;;;5079324;28;19928;-71
2024/01/18 10:41:16;;;;;;;;;;;;;;;;;;5072925;28;20023;-72
2024/01/18 10:43:43;;;;;;;;;;;;;;;;;;5078160;28;19931;-74
2024/01/18 10:46:10;;;;;;;;;;;;;;;;;;5075954;28;20419;-72
2024/01/18 10:48:36;;;;;;;;;;;;;;;;;;5074758;28;19928;-73
2024/01/18 10:51:04;;;;;;;;;;;;;;;;;;5078234;28;19924;-72
2024/01/18 10:53:31;;;;;;;;;;;;;;;;;;5072928;28;19947;-74
2024/01/18 10:55:57;;;;;;;;;;;;;;;;;;5077808;28;19925;-73
2024/01/18 10:58:24;;;;;;;;;;;;;;;;;;5071881;28;20366;-73
2024/01/18 11:00:50;;;;;;;;;;;;;;;;;;5074734;28;20015;-72
2024/01/18 11:03:17;;;;;;;;;;;;;;;;;;5073895;28;19929;-72
2024/01/18 11:05:43;;;;;;;;;;;;;;;;;;5077347;28;19932;-72
2024/01/18 11:08:10;;;;;;;;;;;;;;;;;;5076158;28;19928;-72
2024/01/18 11:10:36;;;;;;;;;;;;;;;;;;5073417;28;20333;-75
2024/01/18 11:13:02;;;;;;;;;;;;;;;;;;5074746;28;19931;-74
2024/01/18 11:15:29;;;;;;;;;;;;;;;;;;5076543;28;19931;-72
2024/01/18 11:17:56;;;;;;;;;;;;;;;;;;5077364;28;19924;-74
2024/01/18 11:20:23;;;;;;;;;;;;;;;;;;5076261;28;20452;-74
2024/01/18 11:22:49;;;;;;;;;;;;;;;;;;5079400;28;19963;-73
2024/01/18 11:25:15;;;;;;;;;;;;;;;;;;5074572;28;19924;-74
2024/01/18 11:27:42;;;;;;;;;;;;;;;;;;5077824;28;20297;-72
2024/01/18 11:30:09;;;;;;;;;;;;;;;;;;5076067;28;19931;-75
2024/01/18 11:32:35;;;;;;;;;;;;;;;;;;5078816;28;19932;-74
2024/01/18 11:35:02;;;;;;;;;;;;;;;;;;5079618;28;20449;-73
2024/01/18 11:37:28;;;;;;;;;;;;;;;;;;5062895;28;19943;-73
2024/01/18 11:39:55;;;;;;;;;;;;;;;;;;5079611;28;20377;-72
2024/01/18 11:42:21;;;;;;;;;;;;;;;;;;5081854;28;19977;-73
2024/01/18 11:44:47;;;;;;;;;;;;;;;;;;5075339;28;19960;-73
2024/01/18 11:47:14;;;;;;;;;;;;;;;;;;5079979;28;20397;-74
2024/01/18 11:49:40;;;;;;;;;;;;;;;;;;5075014;28;19932;-72
2024/01/18 11:52:06;;;;;;;;;;;;;;;;;;5081707;28;19939;-73
2024/01/18 11:54:34;;;;;;;;;;;;;;;;;;5075174;28;19924;-73
2024/01/18 11:57:00;;;;;;;;;;;;;;;;;;5075940;28;20060;-74
2024/01/18 11:59:27;;;;;;;;;;;;;;;;;;5066712;28;19928;-73
2024/01/18 12:01:53;;;;;;;;;;;;;;;;;;5073707;28;19947;-72
2024/01/18 12:04:19;;;;;;;;;;;;;;;;;;5074677;28;20278;-72
2024/01/18 12:06:46;;;;;;;;;;;;;;;;;;5076242;28;19925;-73
2024/01/18 12:09:12;;;;;;;;;;;;;;;;;;5076813;28;19929;-74
2024/01/18 12:11:38;;;;;;;;;;;;;;;;;;5075037;28;19930;-75
2024/01/18 12:14:05;;;;;;;;;;;;;;;;;;5080535;28;20309;-73
2024/01/18 12:16:31;;;;;;;;;;;;;;;;;;5072188;28;19928;-74
2024/01/18 12:18:57;;;;;;;;;;;;;;;;;;5077423;28;19929;-72
2024/01/18 12:21:24;;;;;;;;;;;;;;;;;;5074065;28;19931;-73
2024/01/18 12:23:50;;;;;;;;;;;;;;;;;;5077878;28;20023;-73
2024/01/18 12:26:17;;;;;;;;;;;;;;;;;;5071046;28;20015;-73
2024/01/18 12:28:43;;;;;;;;;;;;;;;;;;5083425;28;19924;-72
2024/01/18 12:31:10;;;;;;;;;;;;;;;;;;5071554;28;19979;-73
2024/01/18 12:33:36;;;;;;;;;;;;;;;;;;5079312;28;20417;-73
2024/01/18 12:36:03;;;;;;;;;;;;;;;;;;5078739;28;19928;-72
2024/01/18 12:38:33;;;;;;;;;;;;;;;;;;5077060;28;19935;-73
2024/01/18 12:41:00;;;;;;;;;;;;;;;;;;5076771;28;19924;-74
2024/01/18 12:43:26;;;;;;;;;;;;;;;;;;5073422;28;19925;-74
2024/01/18 12:45:53;;;;;;;;;;;;;;;;;;5079200;28;19924;-73
2024/01/18 12:48:19;;;;;;;;;;;;;;;;;;5075383;28;19932;-73
2024/01/18 12:50:45;;;;;;;;;;;;;;;;;;5074315;28;20031;-73
2024/01/18 12:53:12;;;;;;;;;;;;;;;;;;5075761;28;19968;-73
2024/01/18 12:55:38;;;;;;;;;;;;;;;;;;5082041;28;19943;-74
2024/01/18 12:58:05;;;;;;;;;;;;;;;;;;5076576;28;20027;-74
2024/01/18 13:00:33;;;;;;;;;;;;;;;;;;5079844;28;20019;-73
2024/01/18 13:02:59;;;;;;;;;;;;;;;;;;5078466;28;20022;-73
2024/01/18 13:05:26;;;;;;;;;;;;;;;;;;5081139;28;19924;-74
2024/01/18 13:07:52;;;;;;;;;;;;;;;;;;5076871;28;20349;-74
2024/01/18 13:10:19;;;;;;;;;;;;;;;;;;5071935;28;19931;-74
2024/01/18 13:12:46;;;;;;;;;;;;;;;;;;5078714;28;19925;-74
2024/01/18 13:15:13;;;;;;;;;;;;;;;;;;5080841;28;19931;-75
2024/01/18 13:17:40;;;;;;;;;;;;;;;;;;5081349;28;20407;-72
2024/01/18 13:20:10;;;;;;;;;;;;;;;;;;5081966;28;19954;-73
2024/01/18 13:22:37;;;;;;;;;;;;;;;;;;5083447;28;19932;-73
2024/01/18 13:25:03;;;;;;;;;;;;;;;;;;5081461;28;20673;-72
2024/01/18 13:27:29;;;;;;;;;;;;;;;;;;5081922;28;19932;-75
2024/01/18 13:29:56;;;;;;;;;;;;;;;;;;5064755;28;19954;-72
2024/01/18 13:32:23;;;;;;;;;;;;;;;;;;5082131;28;19925;-71
2024/01/18 13:34:49;;;;;;;;;;;;;;;;;;5084192;28;19930;-73
2024/01/18 13:37:16;;;;;;;;;;;;;;;;;;5073396;28;19924;-72
2024/01/18 13:39:47;;;;;;;;;;;;;;;;;;5071531;28;20262;-72
2024/01/18 13:42:13;;;;;;;;;;;;;;;;;;5078250;28;19932;-73
2024/01/18 13:44:39;;;;;;;;;;;;;;;;;;5069354;28;19924;-71
2024/01/18 13:47:06;;;;;;;;;;;;;;;;;;5076913;28;19925;-73
2024/01/18 13:49:33;;;;;;;;;;;;;;;;;;5067316;28;20431;-73
2024/01/18 13:52:00;;;;;;;;;;;;;;;;;;5078946;28;19924;-72
2024/01/18 13:54:26;;;;;;;;;;;;;;;;;;5069132;28;19925;-71
2024/01/18 13:56:53;;;;;;;;;;;;;;;;;;5076231;28;19928;-72
2024/01/18 13:59:19;;;;;;;;;;;;;;;;;;5067021;28;19936;-74
2024/01/18 14:01:45;;;;;;;;;;;;;;;;;;5074541;28;19940;-73
2024/01/18 14:04:12;;;;;;;;;;;;;;;;;;5075064;28;20381;-75
2024/01/18 14:06:39;;;;;;;;;;;;;;;;;;5072860;28;19924;-74
2024/01/18 14:09:08;;;;;;;;;;;;;;;;;;5071131;28;19936;-72
2024/01/18 14:11:35;;;;;;;;;;;;;;;;;;5074612;28;20378;-74
2024/01/18 14:14:01;;;;;;;;;;;;;;;;;;5075679;28;19928;-72
2024/01/18 14:16:28;;;;;;;;;;;;;;;;;;5070787;28;20023;-74
2024/01/18 14:18:54;;;;;;;;;;;;;;;;;;5076913;28;19966;-72
2024/01/18 14:21:21;;;;;;;;;;;;;;;;;;5072833;28;19924;-72
2024/01/18 14:23:47;;;;;;;;;;;;;;;;;;5078607;28;20031;-72
2024/01/18 14:26:15;;;;;;;;;;;;;;;;;;5071254;28;19924;-72
2024/01/18 14:28:41;;;;;;;;;;;;;;;;;;5077790;28;20289;-72
2024/01/18 14:31:09;;;;;;;;;;;;;;;;;;5072002;28;19939;-73
2024/01/18 14:33:35;;;;;;;;;;;;;;;;;;5076147;28;19924;-72
2024/01/18 14:36:02;;;;;;;;;;;;;;;;;;5072848;28;19924;-73
2024/01/18 14:38:28;;;;;;;;;;;;;;;;;;5076623;28;19936;-73
2024/01/18 14:40:54;;;;;;;;;;;;;;;;;;5077228;28;19963;-72
2024/01/18 14:43:21;;;;;;;;;;;;;;;;;;5076194;28;19924;-71
2024/01/18 14:45:48;;;;;;;;;;;;;;;;;;5076096;28;19933;-72
2024/01/18 14:48:14;;;;;;;;;;;;;;;;;;5073543;28;20360;-73
2024/01/18 14:50:42;;;;;;;;;;;;;;;;;;5079288;28;19959;-73
2024/01/18 14:53:08;;;;;;;;;;;;;;;;;;5075822;28;19933;-74
2024/01/18 14:55:35;;;;;;;;;;;;;;;;;;5078315;28;19924;-72
2024/01/18 14:58:01;;;;;;;;;;;;;;;;;;5079059;28;20027;-73
2024/01/18 15:00:28;;;;;;;;;;;;;;;;;;5080724;28;19928;-72
2024/01/18 15:02:54;;;;;;;;;;;;;;;;;;5073073;28;20365;-71
2024/01/18 15:05:22;;;;;;;;;;;;;;;;;;5079412;28;19924;-73
2024/01/18 15:07:51;;;;;;;;;;;;;;;;;;5078437;28;20395;-71
2024/01/18 15:10:18;;;;;;;;;;;;;;;;;;5075869;28;19928;-72
2024/01/18 15:12:45;;;;;;;;;;;;;;;;;;5077686;28;19931;-71
2024/01/18 15:15:12;;;;;;;;;;;;;;;;;;5082132;28;20384;-71
2024/01/18 15:17:39;;;;;;;;;;;;;;;;;;5080062;28;20015;-72
2024/01/18 15:20:09;;;;;;;;;;;;;;;;;;5078298;28;19932;-72
2024/01/18 15:22:35;;;;;;;;;;;;;;;;;;5081672;28;19932;-71
2024/01/18 15:25:03;;;;;;;;;;;;;;;;;;5077541;28;19928;-71
2024/01/18 15:27:30;;;;;;;;;;;;;;;;;;5069786;28;19924;-71
2024/01/18 15:29:57;;;;;;;;;;;;;;;;;;5074431;28;19932;-72
2024/01/18 15:32:24;;;;;;;;;;;;;;;;;;5070335;28;20020;-72
2024/01/18 15:34:50;;;;;;;;;;;;;;;;;;5071601;28;19931;-72
2024/01/18 15:37:16;;;;;;;;;;;;;;;;;;5074966;28;19928;-72
2024/01/18 15:39:43;;;;;;;;;;;;;;;;;;5075027;28;19924;-72
2024/01/18 15:42:09;;;;;;;;;;;;;;;;;;5086673;28;19974;-70
2024/01/18 15:44:36;;;;;;;;;;;;;;;;;;5076705;28;19933;-71
2024/01/18 15:47:07;;;;;;;;;;;;;;;;;;5075478;28;19936;-70
2024/01/18 15:49:33;;;;;;;;;;;;;;;;;;5073063;28;19928;-73
2024/01/18 15:52:00;;;;;;;;;;;;;;;;;;5083584;28;20327;-73
2024/01/18 15:54:27;;;;;;;;;;;;;;;;;;5072876;28;20277;-72
2024/01/18 15:56:53;;;;;;;;;;;;;;;;;;5078752;28;20018;-73
2024/01/18 15:59:19;;;;;;;;;;;;;;;;;;5073312;28;19967;-72
2024/01/18 16:01:46;;;;;;;;;;;;;;;;;;5077198;28;20027;-72
2024/01/18 16:04:12;;;;;;;;;;;;;;;;;;5077252;28;19939;-71
2024/01/18 16:06:40;;;;;;;;;;;;;;;;;;5076639;28;20023;-71
2024/01/18 16:09:06;;;;;;;;;;;;;;;;;;5080764;28;19931;-71
2024/01/18 16:11:33;;;;;;;;;;;;;;;;;;5074824;28;19924;-72
2024/01/18 16:13:59;;;;;;;;;;;;;;;;;;5079997;28;19935;-71
2024/01/18 16:16:25;;;;;;;;;;;;;;;;;;5073778;28;19928;-71
2024/01/18 16:18:52;;;;;;;;;;;;;;;;;;5079734;28;19928;-70
2024/01/18 16:21:18;;;;;;;;;;;;;;;;;;5077017;28;19959;-69
2024/01/18 16:23:45;;;;;;;;;;;;;;;;;;5084767;28;19982;-70
2024/01/18 16:26:11;;;;;;;;;;;;;;;;;;5077146;28;19924;-70
2024/01/18 16:28:38;;;;;;;;;;;;;;;;;;5079308;28;20036;-70
2024/01/18 16:31:04;;;;;;;;;;;;;;;;;;5075771;28;19924;-72
2024/01/18 16:33:31;;;;;;;;;;;;;;;;;;5084233;28;19931;-72
2024/01/18 16:35:58;;;;;;;;;;;;;;;;;;5077640;28;19924;-70
2024/01/18 16:38:24;;;;;;;;;;;;;;;;;;5080895;28;20384;-69
2024/01/18 16:40:50;;;;;;;;;;;;;;;;;;5074324;28;19923;-70